createdAt,value
2022-12-15T00:00:50.893Z,3.81
2022-12-15T00:03:38.596Z,3.89
2022-12-15T00:06:28.250Z,3.81
2022-12-15T00:09:16.166Z,3.55
2022-12-15T00:12:08.081Z,3.87
2022-12-15T00:14:54.876Z,3.75
2022-12-15T00:17:41.288Z,3.63
2022-12-15T00:20:28.712Z,3.54
2022-12-15T00:23:15.023Z,3.32
2022-12-15T00:26:04.863Z,3.32
2022-12-15T00:28:51.179Z,3.58
2022-12-15T00:31:38.286Z,3.46
2022-12-15T00:34:24.466Z,3.42
2022-12-15T00:37:12.414Z,3.55
2022-12-15T00:39:40.773Z,3.44
2022-12-15T00:42:11.238Z,3.62
2022-12-15T00:44:38.915Z,3.94
2022-12-15T00:47:06.711Z,3.66
2022-12-15T00:49:53.952Z,3.56
2022-12-15T00:52:41.031Z,3.47
2022-12-15T00:55:28.018Z,3.52
2022-12-15T00:58:14.642Z,3.54
2022-12-15T01:01:01.883Z,3.67
2022-12-15T01:03:50.223Z,3.63
2022-12-15T01:06:38.720Z,3.70
2022-12-15T01:09:26.792Z,3.66
2022-12-15T01:12:13.653Z,3.64
2022-12-15T01:15:00.078Z,3.57
2022-12-15T01:17:47.825Z,3.78
2022-12-15T01:20:20.228Z,4.12
2022-12-15T01:22:50.771Z,4.36
2022-12-15T01:25:19.984Z,3.78
2022-12-15T01:27:49.543Z,3.85
2022-12-15T01:30:20.365Z,3.93
2022-12-15T01:32:48.967Z,3.80
2022-12-15T01:35:17.684Z,3.87
2022-12-15T01:37:45.742Z,3.82
2022-12-15T01:40:38.780Z,3.93
2022-12-15T01:43:15.481Z,3.87
2022-12-15T01:45:50.721Z,4.05
2022-12-15T01:48:43.039Z,4.04
2022-12-15T01:51:18.565Z,4.07
2022-12-15T01:53:53.410Z,4.11
2022-12-15T01:56:23.260Z,4.00
2022-12-15T01:58:55.503Z,4.23
2022-12-15T02:01:23.883Z,4.24
2022-12-15T02:03:52.650Z,4.36
2022-12-15T02:06:22.433Z,3.96
2022-12-15T02:08:52.636Z,4.02
2022-12-15T02:11:37.204Z,4.00
2022-12-15T02:14:10.219Z,4.20
2022-12-15T02:16:54.347Z,4.30
2022-12-15T02:19:42.059Z,4.25
2022-12-15T02:22:21.934Z,4.26
2022-12-15T02:25:17.713Z,4.21
2022-12-15T02:27:56.152Z,4.33
2022-12-15T02:30:39.076Z,4.24
2022-12-15T02:33:27.313Z,4.24
2022-12-15T02:35:55.002Z,4.31
2022-12-15T02:38:30.494Z,4.32
2022-12-15T02:41:02.787Z,4.26
2022-12-15T02:43:34.610Z,4.36
2022-12-15T02:46:28.176Z,4.31
2022-12-15T02:49:01.078Z,4.29
2022-12-15T02:51:57.346Z,4.26
2022-12-15T02:55:02.072Z,4.32
2022-12-15T02:57:44.775Z,4.34
2022-12-15T03:00:14.204Z,4.27
2022-12-15T03:02:53.903Z,4.40
2022-12-15T03:05:23.282Z,4.24
2022-12-15T03:07:53.112Z,4.25
2022-12-15T03:10:23.735Z,4.36
2022-12-15T03:12:52.519Z,4.37
2022-12-15T03:15:20.207Z,4.32
2022-12-15T03:17:48.689Z,4.34
2022-12-15T03:20:16.528Z,4.51
2022-12-15T03:22:45.134Z,4.56
2022-12-15T03:25:13.358Z,4.40
2022-12-15T03:27:41.821Z,4.36
2022-12-15T03:30:09.928Z,4.44
2022-12-15T03:32:38.276Z,4.41
2022-12-15T03:35:06.799Z,4.34
2022-12-15T03:37:34.703Z,4.23
2022-12-15T03:40:02.572Z,4.26
2022-12-15T03:42:50.583Z,4.27
2022-12-15T03:45:24.643Z,4.23
2022-12-15T03:47:54.521Z,4.19
2022-12-15T03:50:25.027Z,4.11
2022-12-15T03:53:03.296Z,4.10
2022-12-15T03:55:31.621Z,4.00
2022-12-15T03:57:59.880Z,4.00
2022-12-15T04:00:29.538Z,3.95
2022-12-15T04:03:04.142Z,3.92
2022-12-15T04:05:34.158Z,3.81
2022-12-15T04:08:02.887Z,3.89
2022-12-15T04:10:34.718Z,3.74
2022-12-15T04:13:06.354Z,3.68
2022-12-15T04:15:36.131Z,3.82
2022-12-15T04:18:10.097Z,3.82
2022-12-15T04:20:40.377Z,3.81
2022-12-15T04:23:08.723Z,3.71
2022-12-15T04:25:55.775Z,3.71
2022-12-15T04:28:43.606Z,3.67
2022-12-15T04:31:32.585Z,3.71
2022-12-15T04:34:23.246Z,3.83
2022-12-15T04:37:13.100Z,3.78
2022-12-15T04:40:09.015Z,3.74
2022-12-15T04:42:58.305Z,3.67
2022-12-15T04:45:47.101Z,3.55
2022-12-15T04:48:33.594Z,3.38
2022-12-15T04:51:20.948Z,3.61
2022-12-15T04:54:08.937Z,3.72
2022-12-15T04:56:57.928Z,3.52
2022-12-15T04:59:44.299Z,3.57
2022-12-15T05:02:35.080Z,3.64
2022-12-15T05:08:17.538Z,3.65
2022-12-15T05:11:04.780Z,3.44
2022-12-15T05:13:56.680Z,3.43
2022-12-15T05:16:43.128Z,3.42
2022-12-15T05:19:30.978Z,3.43
2022-12-15T05:22:17.575Z,3.52
2022-12-15T05:25:05.816Z,3.45
2022-12-15T05:27:55.167Z,3.55
2022-12-15T05:30:43.980Z,3.57
2022-12-15T05:33:11.888Z,3.52
2022-12-15T05:35:41.648Z,3.44
2022-12-15T05:38:11.282Z,3.28
2022-12-15T05:40:40.082Z,3.69
2022-12-15T05:43:09.209Z,3.75
2022-12-15T05:45:39.179Z,3.65
2022-12-15T05:48:07.198Z,3.69
2022-12-15T05:50:36.925Z,3.58
2022-12-15T05:53:07.347Z,3.52
2022-12-15T05:55:36.686Z,3.51
2022-12-15T05:58:07.086Z,3.73
2022-12-15T06:00:38.222Z,4.02
2022-12-15T06:03:08.060Z,3.71
2022-12-15T06:05:36.721Z,3.68
2022-12-15T06:08:07.009Z,3.60
2022-12-15T06:10:38.568Z,3.62
2022-12-15T06:13:11.289Z,3.63
2022-12-15T06:15:45.078Z,3.69
2022-12-15T06:18:13.679Z,3.63
2022-12-15T06:20:44.774Z,3.75
2022-12-15T06:23:23.652Z,3.50
2022-12-15T06:25:52.033Z,3.78
2022-12-15T06:28:23.971Z,3.67
2022-12-15T06:30:53.730Z,3.63
2022-12-15T06:33:27.306Z,3.67
2022-12-15T06:36:06.087Z,3.89
2022-12-15T06:38:42.179Z,4.29
2022-12-15T06:41:15.914Z,4.36
2022-12-15T06:43:44.499Z,4.26
2022-12-15T06:46:13.381Z,3.45
2022-12-15T06:48:45.146Z,3.48
2022-12-15T06:51:17.145Z,3.36
2022-12-15T06:53:50.089Z,3.26
2022-12-15T06:56:25.571Z,3.66
2022-12-15T06:59:02.244Z,3.82
2022-12-15T07:01:39.458Z,3.40
2022-12-15T07:04:08.738Z,3.43
2022-12-15T07:06:38.637Z,3.36
2022-12-15T07:09:08.498Z,3.41
2022-12-15T07:11:38.255Z,3.68
2022-12-15T07:14:06.568Z,3.90
2022-12-15T07:16:40.186Z,3.91
2022-12-15T07:19:12.982Z,3.93
2022-12-15T07:21:41.841Z,4.35
2022-12-15T07:24:13.168Z,4.21
2022-12-15T07:26:46.222Z,4.33
2022-12-15T07:29:22.860Z,4.33
2022-12-15T07:31:58.139Z,4.20
2022-12-15T07:34:29.137Z,4.27
2022-12-15T07:36:57.584Z,4.10
2022-12-15T07:39:30.018Z,4.21
2022-12-15T07:41:58.522Z,4.41
2022-12-15T07:44:27.352Z,4.27
2022-12-15T07:46:55.827Z,4.08
2022-12-15T07:49:26.204Z,4.43
2022-12-15T07:51:58.529Z,4.03
2022-12-15T07:55:09.349Z,4.24
2022-12-15T07:57:43.439Z,4.19
2022-12-15T08:00:22.069Z,3.98
2022-12-15T08:02:50.621Z,3.80
2022-12-15T08:05:19.291Z,3.90
2022-12-15T08:07:47.203Z,4.31
2022-12-15T08:10:15.904Z,4.00
2022-12-15T08:12:51.514Z,3.96
2022-12-15T08:15:22.997Z,3.99
2022-12-15T08:17:52.160Z,4.20
2022-12-15T08:20:22.576Z,4.22
2022-12-15T08:23:01.095Z,4.57
2022-12-15T08:25:29.604Z,4.24
2022-12-15T08:27:58.048Z,4.62
2022-12-15T08:30:27.626Z,4.49
2022-12-15T08:32:56.312Z,4.27
2022-12-15T08:35:54.619Z,4.47
2022-12-15T08:38:16.953Z,4.42
2022-12-15T08:40:45.859Z,4.69
2022-12-15T08:43:14.928Z,4.68
2022-12-15T08:45:43.911Z,4.29
2022-12-15T08:48:12.079Z,4.36
2022-12-15T08:50:45.980Z,4.28
2022-12-15T08:53:30.858Z,4.38
2022-12-15T08:56:06.182Z,4.30
2022-12-15T08:58:36.269Z,4.84
2022-12-15T09:01:09.668Z,4.72
2022-12-15T09:03:38.146Z,4.57
2022-12-15T09:06:09.069Z,4.42
2022-12-15T09:08:36.984Z,4.64
2022-12-15T09:11:07.721Z,4.51
2022-12-15T09:13:36.609Z,4.57
2022-12-15T09:16:16.093Z,4.83
2022-12-15T09:18:48.930Z,4.79
2022-12-15T09:21:17.424Z,4.63
2022-12-15T09:23:52.048Z,4.83
2022-12-15T09:26:21.962Z,4.52
2022-12-15T09:28:51.441Z,4.46
2022-12-15T09:31:22.217Z,4.95
2022-12-15T09:33:53.737Z,5.34
2022-12-15T09:36:23.999Z,5.05
2022-12-15T09:39:01.958Z,4.26
2022-12-15T09:41:36.239Z,4.56
2022-12-15T09:44:12.222Z,4.68
2022-12-15T09:47:17.079Z,4.21
2022-12-15T09:49:54.042Z,4.29
2022-12-15T09:52:29.321Z,4.27
2022-12-15T09:54:59.116Z,4.68
2022-12-15T09:57:37.882Z,4.42
2022-12-15T10:00:22.081Z,4.45
2022-12-15T10:02:58.882Z,4.61
2022-12-15T10:05:57.294Z,4.56
2022-12-15T10:08:20.185Z,4.91
2022-12-15T10:11:02.866Z,4.94
2022-12-15T10:13:38.466Z,5.02
2022-12-15T10:16:39.432Z,5.17
2022-12-15T10:19:14.789Z,4.88
2022-12-15T10:21:50.515Z,4.93
2022-12-15T10:24:59.768Z,5.48
2022-12-15T10:27:18.423Z,5.14
2022-12-15T10:29:56.203Z,4.97
2022-12-15T10:32:55.891Z,5.02
2022-12-15T10:35:34.022Z,5.13
2022-12-15T10:38:07.322Z,5.29
2022-12-15T10:40:44.884Z,5.34
2022-12-15T10:43:31.524Z,5.19
2022-12-15T10:46:25.056Z,5.14
2022-12-15T10:49:00.951Z,5.50
2022-12-15T10:51:33.015Z,5.57
2022-12-15T10:54:13.384Z,5.68
2022-12-15T10:59:36.029Z,5.33
2022-12-15T11:05:20.776Z,4.90
2022-12-15T11:07:55.456Z,5.13
2022-12-15T11:10:28.621Z,5.12
2022-12-15T11:13:20.039Z,5.16
2022-12-15T11:15:54.906Z,5.21
2022-12-15T11:18:39.318Z,5.40
2022-12-15T11:21:19.333Z,5.77
2022-12-15T11:23:57.528Z,5.85
2022-12-15T11:26:40.026Z,5.90
2022-12-15T11:29:24.276Z,5.79
2022-12-15T11:32:01.426Z,5.62
2022-12-15T11:34:44.975Z,5.44
2022-12-15T11:37:34.240Z,5.62
2022-12-15T11:40:39.311Z,5.80
2022-12-15T11:43:27.381Z,5.73
2022-12-15T11:46:02.120Z,5.69
2022-12-15T11:48:56.922Z,5.79
2022-12-15T11:51:50.986Z,6.15
2022-12-15T11:54:53.916Z,5.84
2022-12-15T11:57:31.142Z,5.94
2022-12-15T12:00:09.417Z,5.84
2022-12-15T12:03:13.291Z,6.13
2022-12-15T12:06:08.159Z,6.41
2022-12-15T12:08:55.358Z,6.22
2022-12-15T12:12:05.160Z,5.97
2022-12-15T12:14:37.092Z,5.78
2022-12-15T12:17:42.929Z,6.24
2022-12-15T12:20:23.085Z,6.23
2022-12-15T12:23:13.031Z,6.31
2022-12-15T12:26:16.302Z,6.07
2022-12-15T12:28:52.465Z,6.37
2022-12-15T12:31:34.963Z,6.12
2022-12-15T12:34:21.858Z,5.98
2022-12-15T12:36:55.954Z,6.03
2022-12-15T12:39:27.215Z,5.94
2022-12-15T12:42:29.294Z,6.14
2022-12-15T12:45:01.965Z,6.19
2022-12-15T12:47:36.543Z,6.11
2022-12-15T12:50:16.035Z,5.98
2022-12-15T12:52:56.926Z,6.21
2022-12-15T12:55:41.152Z,6.31
2022-12-15T12:58:32.538Z,6.39
2022-12-15T13:01:21.168Z,6.35
2022-12-15T13:04:06.772Z,6.69
2022-12-15T13:06:35.729Z,6.23
2022-12-15T13:09:17.309Z,6.08
2022-12-15T13:11:49.027Z,6.43
2022-12-15T13:14:44.861Z,6.53
2022-12-15T13:17:36.121Z,6.22
2022-12-15T13:20:20.936Z,6.73
2022-12-15T13:22:54.176Z,6.31
2022-12-15T13:25:38.073Z,6.34
2022-12-15T13:28:28.063Z,6.40
2022-12-15T13:31:19.302Z,6.35
2022-12-15T13:33:56.060Z,5.94
2022-12-15T13:36:40.497Z,5.88
2022-12-15T13:42:31.599Z,6.05
2022-12-15T13:44:42.935Z,6.03
2022-12-15T13:47:26.965Z,6.06
2022-12-15T13:50:11.036Z,6.00
2022-12-15T13:53:17.710Z,6.04
2022-12-15T13:55:56.147Z,6.06
2022-12-15T13:58:45.034Z,6.21
2022-12-15T14:01:32.329Z,6.29
2022-12-15T14:04:18.991Z,6.33
2022-12-15T14:07:02.710Z,6.26
2022-12-15T14:09:38.790Z,5.86
2022-12-15T14:12:15.122Z,6.18
2022-12-15T14:14:50.568Z,6.24
2022-12-15T14:17:21.227Z,6.26
2022-12-15T14:19:58.867Z,5.91
2022-12-15T14:22:30.617Z,6.08
2022-12-15T14:25:19.448Z,5.84
2022-12-15T14:28:12.105Z,6.02
2022-12-15T14:33:42.154Z,5.81
2022-12-15T14:36:16.920Z,5.62
2022-12-15T14:38:57.760Z,5.64
2022-12-15T14:41:32.228Z,5.64
2022-12-15T14:44:31.712Z,5.96
2022-12-15T14:47:31.951Z,5.67
2022-12-15T14:50:01.768Z,5.51
2022-12-15T14:52:44.190Z,5.64
2022-12-15T14:55:26.919Z,5.80
2022-12-15T14:57:55.872Z,5.48
2022-12-15T15:00:36.376Z,5.59
2022-12-15T15:03:04.147Z,5.04
2022-12-15T15:03:20.289Z,5.92
2022-12-15T15:05:55.591Z,5.73
2022-12-15T15:08:38.064Z,5.40
2022-12-15T15:11:31.164Z,5.64
2022-12-15T15:14:15.884Z,5.81
2022-12-15T15:16:45.997Z,5.96
2022-12-15T15:19:21.884Z,5.70
2022-12-15T15:21:56.748Z,5.82
2022-12-15T15:24:37.467Z,5.53
2022-12-15T15:27:28.911Z,5.76
2022-12-15T15:30:28.927Z,5.57
2022-12-15T15:33:02.387Z,5.54
2022-12-15T15:38:33.464Z,5.59
2022-12-15T15:44:13.905Z,5.45
2022-12-15T15:46:56.874Z,5.34
2022-12-15T15:49:26.071Z,5.37
2022-12-15T15:51:58.182Z,5.26
2022-12-15T15:54:47.049Z,5.18
2022-12-15T15:57:20.939Z,5.17
2022-12-15T16:00:02.854Z,5.37
2022-12-15T16:02:35.357Z,5.05
2022-12-15T16:05:03.971Z,5.37
2022-12-15T16:07:31.913Z,5.18
2022-12-15T16:12:48.972Z,5.43
2022-12-15T16:15:27.328Z,5.23
2022-12-15T16:17:56.096Z,5.31
2022-12-15T16:23:24.113Z,5.24
2022-12-15T16:28:38.012Z,5.14
2022-12-15T16:31:16.868Z,5.25
2022-12-15T16:33:46.889Z,5.22
2022-12-15T16:36:31.239Z,5.05
2022-12-15T16:39:04.895Z,5.26
2022-12-15T16:41:42.102Z,5.23
2022-12-15T16:44:15.840Z,5.38
2022-12-15T16:46:46.366Z,5.19
2022-12-15T16:49:16.104Z,5.56
2022-12-15T16:51:52.980Z,5.12
2022-12-15T16:54:29.410Z,5.22
2022-12-15T16:57:00.010Z,5.31
2022-12-15T16:59:35.319Z,5.01
2022-12-15T17:05:12.940Z,5.09
2022-12-15T17:10:39.067Z,5.14
2022-12-15T17:13:21.983Z,5.69
2022-12-15T17:15:59.124Z,5.26
2022-12-15T17:18:37.030Z,5.46
2022-12-15T17:21:53.166Z,5.10
2022-12-15T17:24:33.298Z,5.22
2022-12-15T17:27:03.892Z,5.40
2022-12-15T17:29:34.905Z,5.48
2022-12-15T17:32:05.213Z,5.26
2022-12-15T17:34:39.195Z,4.82
2022-12-15T17:37:16.947Z,4.78
2022-12-15T17:39:51.705Z,4.98
2022-12-15T17:42:26.079Z,4.57
2022-12-15T17:47:32.437Z,5.08
2022-12-15T17:50:01.150Z,5.57
2022-12-15T17:52:34.681Z,5.62
2022-12-15T17:55:06.915Z,5.60
2022-12-15T17:57:41.838Z,5.45
2022-12-15T18:02:57.195Z,5.15
2022-12-15T18:05:29.055Z,5.37
2022-12-15T18:08:01.997Z,5.14
2022-12-15T18:10:36.173Z,5.47
2022-12-15T18:13:34.875Z,5.43
2022-12-15T18:16:03.323Z,5.24
2022-12-15T18:18:32.163Z,5.28
2022-12-15T18:21:06.937Z,5.13
2022-12-15T18:23:40.923Z,5.23
2022-12-15T18:26:15.103Z,5.31
2022-12-15T18:28:53.842Z,4.70
2022-12-15T18:31:30.913Z,4.90
2022-12-15T18:34:08.931Z,4.87
2022-12-15T18:36:46.849Z,4.77
2022-12-15T18:39:23.811Z,5.23
2022-12-15T18:42:03.818Z,4.73
2022-12-15T18:44:33.939Z,4.98
2022-12-15T18:47:20.928Z,4.96
2022-12-15T18:49:55.861Z,4.80
2022-12-15T18:52:34.415Z,5.01
2022-12-15T18:55:05.883Z,4.46
2022-12-15T18:57:50.115Z,4.90
2022-12-15T19:00:30.544Z,4.90
2022-12-15T19:03:10.896Z,5.22
2022-12-15T19:05:40.029Z,5.45
2022-12-15T19:08:25.391Z,4.71
2022-12-15T19:11:12.882Z,4.98
2022-12-15T19:13:53.071Z,5.28
2022-12-15T19:16:53.970Z,4.82
2022-12-15T19:19:46.834Z,4.83
2022-12-15T19:25:06.202Z,4.85
2022-12-15T19:27:42.870Z,5.12
2022-12-15T19:30:17.056Z,4.95
2022-12-15T19:32:56.893Z,5.08
2022-12-15T19:38:05.790Z,4.95
2022-12-15T19:40:41.876Z,5.11
2022-12-15T19:43:15.402Z,4.89
2022-12-15T19:45:46.341Z,4.92
2022-12-15T19:51:01.773Z,4.85
2022-12-15T19:53:31.355Z,5.09
2022-12-15T19:56:02.907Z,4.83
2022-12-15T19:58:32.823Z,4.63
2022-12-15T20:01:19.168Z,4.78
2022-12-15T20:03:53.270Z,4.80
2022-12-15T20:06:32.021Z,4.40
2022-12-15T20:09:13.844Z,4.72
2022-12-15T20:11:44.161Z,4.71
2022-12-15T20:16:51.081Z,4.10
2022-12-15T20:19:29.768Z,4.56
2022-12-15T20:22:07.888Z,4.25
2022-12-15T20:24:37.877Z,4.19
2022-12-15T20:29:57.798Z,4.35
2022-12-15T20:32:45.950Z,4.07
2022-12-15T20:35:17.045Z,4.43
2022-12-15T20:37:48.099Z,4.04
2022-12-15T20:40:34.817Z,4.01
2022-12-15T20:43:03.274Z,3.73
2022-12-15T20:45:41.603Z,3.56
2022-12-15T20:50:51.538Z,3.86
2022-12-15T20:53:24.211Z,3.53
2022-12-15T20:55:54.158Z,3.64
2022-12-15T20:58:32.612Z,3.77
2022-12-15T21:01:13.104Z,3.89
2022-12-15T21:03:45.862Z,4.56
2022-12-15T21:06:15.219Z,4.48
2022-12-15T21:08:45.904Z,4.09
2022-12-15T21:11:21.720Z,4.40
2022-12-15T21:14:04.270Z,4.06
2022-12-15T21:16:38.037Z,4.16
2022-12-15T21:19:23.060Z,4.23
2022-12-15T21:22:00.797Z,4.02
2022-12-15T21:24:37.159Z,4.25
2022-12-15T21:27:07.256Z,4.31
2022-12-15T21:29:40.732Z,4.62
2022-12-15T21:32:09.538Z,4.36
2022-12-15T21:34:39.428Z,4.44
2022-12-15T21:37:30.022Z,4.40
2022-12-15T21:39:59.701Z,4.63
2022-12-15T21:42:34.125Z,4.50
2022-12-15T21:45:18.770Z,4.91
2022-12-15T21:48:10.953Z,4.51
2022-12-15T21:50:45.679Z,4.69
2022-12-15T21:53:17.466Z,4.69
2022-12-15T21:55:47.809Z,4.75
2022-12-15T21:58:22.352Z,4.58
2022-12-15T22:00:52.979Z,4.49
2022-12-15T22:03:25.000Z,4.92
2022-12-15T22:05:54.344Z,4.87
2022-12-15T22:08:23.125Z,4.66
2022-12-15T22:10:53.097Z,4.76
2022-12-15T22:13:23.886Z,4.49
2022-12-15T22:15:52.807Z,4.44
2022-12-15T22:18:29.243Z,4.79
2022-12-15T22:20:57.946Z,4.53
2022-12-15T22:23:26.050Z,4.47
2022-12-15T22:25:58.811Z,4.47
2022-12-15T22:28:31.180Z,4.71
2022-12-15T22:31:02.195Z,4.59
2022-12-15T22:33:31.825Z,4.56
2022-12-15T22:35:59.307Z,4.49
2022-12-15T22:38:28.197Z,4.41
2022-12-15T22:40:58.899Z,4.70
2022-12-15T22:43:36.308Z,4.77
2022-12-15T22:46:09.885Z,4.85
2022-12-15T22:48:42.982Z,4.86
2022-12-15T22:51:13.877Z,4.62
2022-12-15T22:53:43.808Z,4.61
2022-12-15T22:56:25.146Z,4.49
2022-12-15T22:59:01.622Z,4.60
2022-12-15T23:01:31.850Z,4.59
2022-12-15T23:03:59.561Z,4.68
2022-12-15T23:06:27.992Z,4.66
2022-12-15T23:08:56.744Z,4.54
2022-12-15T23:11:41.397Z,4.59
2022-12-15T23:14:11.934Z,4.75
2022-12-15T23:16:41.780Z,4.84
2022-12-15T23:19:24.026Z,5.17
2022-12-15T23:21:52.185Z,4.84
2022-12-15T23:24:20.275Z,4.74
2022-12-15T23:26:48.917Z,5.08
2022-12-15T23:29:16.738Z,4.95
2022-12-15T23:31:44.884Z,4.73
2022-12-15T23:34:12.890Z,5.02
2022-12-15T23:36:43.051Z,4.73
2022-12-15T23:39:14.838Z,5.04
2022-12-15T23:41:42.413Z,4.75
2022-12-15T23:44:12.503Z,4.46
2022-12-15T23:46:40.167Z,4.80
2022-12-15T23:49:07.880Z,4.92
2022-12-15T23:51:36.062Z,4.91
2022-12-15T23:54:03.806Z,5.20
2022-12-15T23:56:31.767Z,5.18
2022-12-15T23:59:00.915Z,5.11
